createdAt,value
2019-04-04T00:00:10.976Z,23.40
2019-04-04T00:02:40.606Z,23.40
2019-04-04T00:05:10.038Z,23.30
2019-04-04T00:07:39.844Z,23.30
2019-04-04T00:10:09.271Z,23.30
2019-04-04T00:12:39.108Z,23.30
2019-04-04T00:15:08.917Z,23.20
2019-04-04T00:17:38.627Z,23.20
2019-04-04T00:20:08.176Z,23.20
2019-04-04T00:22:37.632Z,23.10
2019-04-04T00:25:09.789Z,23.10
2019-04-04T00:27:38.475Z,23.10
2019-04-04T00:30:08.300Z,23.10
2019-04-04T00:32:37.609Z,23.10
2019-04-04T00:35:07.404Z,23.10
2019-04-04T00:37:36.965Z,23.10
2019-04-04T00:40:10.769Z,23.10
2019-04-04T00:42:38.793Z,23.10
2019-04-04T00:45:08.280Z,23.00
2019-04-04T00:47:37.795Z,23.00
2019-04-04T00:50:08.073Z,23.00
2019-04-04T00:52:40.590Z,23.00
2019-04-04T00:55:08.553Z,23.00
2019-04-04T00:57:38.074Z,23.00
2019-04-04T01:00:08.385Z,23.00
2019-04-04T01:02:37.861Z,23.00
2019-04-04T01:05:07.568Z,23.00
2019-04-04T01:07:37.440Z,23.00
2019-04-04T01:10:07.737Z,23.00
2019-04-04T01:12:37.293Z,23.00
2019-04-04T01:15:07.837Z,23.00
2019-04-04T01:17:37.215Z,23.00
2019-04-04T01:20:07.925Z,22.90
2019-04-04T01:22:37.492Z,22.90
2019-04-04T01:25:07.762Z,22.90
2019-04-04T01:27:37.647Z,22.90
2019-04-04T01:30:11.770Z,22.90
2019-04-04T01:32:39.287Z,22.90
2019-04-04T01:35:08.686Z,22.90
2019-04-04T01:37:38.478Z,22.80
2019-04-04T01:40:08.022Z,22.80
2019-04-04T01:42:38.689Z,22.80
2019-04-04T01:45:08.374Z,22.80
2019-04-04T01:47:37.958Z,22.80
2019-04-04T01:50:07.433Z,22.80
2019-04-04T01:52:36.726Z,22.80
2019-04-04T01:55:06.482Z,22.80
2019-04-04T01:57:38.536Z,22.80
2019-04-04T02:00:08.110Z,22.70
2019-04-04T02:02:37.672Z,22.70
2019-04-04T02:05:07.046Z,22.70
2019-04-04T02:07:36.671Z,22.70
2019-04-04T02:10:06.881Z,22.70
2019-04-04T02:12:38.472Z,22.60
2019-04-04T02:15:08.545Z,22.70
2019-04-04T02:17:38.341Z,22.60
2019-04-04T02:20:08.147Z,22.60
2019-04-04T02:22:37.870Z,22.60
2019-04-04T02:25:07.735Z,22.60
2019-04-04T02:27:37.889Z,22.60
2019-04-04T02:30:08.687Z,22.50
2019-04-04T02:32:38.663Z,22.60
2019-04-04T02:35:10.644Z,22.60
2019-04-04T02:37:39.032Z,22.50
2019-04-04T02:40:10.004Z,22.50
2019-04-04T02:42:40.024Z,22.50
2019-04-04T02:45:09.842Z,22.50
2019-04-04T02:47:39.487Z,22.50
2019-04-04T02:50:09.321Z,22.50
2019-04-04T02:52:38.600Z,22.40
2019-04-04T02:55:08.186Z,22.40
2019-04-04T02:57:41.074Z,22.40
2019-04-04T03:00:08.306Z,22.40
2019-04-04T03:02:37.984Z,22.30
2019-04-04T03:05:07.639Z,22.40
2019-04-04T03:07:37.307Z,22.30
2019-04-04T03:10:06.809Z,22.30
2019-04-04T03:12:36.106Z,22.30
2019-04-04T03:15:09.187Z,22.30
2019-04-04T03:17:39.034Z,22.30
2019-04-04T03:20:08.696Z,22.30
2019-04-04T03:22:38.358Z,22.20
2019-04-04T03:25:07.925Z,22.20
2019-04-04T03:27:37.598Z,22.20
2019-04-04T03:30:13.181Z,22.20
2019-04-04T03:32:39.036Z,22.20
2019-04-04T03:35:08.410Z,22.20
2019-04-04T03:37:40.451Z,22.10
2019-04-04T03:40:08.961Z,22.10
2019-04-04T03:42:38.431Z,22.10
2019-04-04T03:45:07.829Z,22.10
2019-04-04T03:47:37.811Z,22.10
2019-04-04T03:50:07.601Z,22.10
2019-04-04T03:52:36.999Z,22.10
2019-04-04T03:55:07.221Z,22.00
2019-04-04T03:57:36.776Z,22.00
2019-04-04T04:00:07.498Z,22.00
2019-04-04T04:02:37.222Z,22.00
2019-04-04T04:05:08.449Z,22.00
2019-04-04T04:07:37.725Z,22.00
2019-04-04T04:10:07.527Z,22.00
2019-04-04T04:12:36.798Z,22.00
2019-04-04T04:15:07.066Z,21.90
2019-04-04T04:17:36.958Z,21.90
2019-04-04T04:20:06.980Z,21.90
2019-04-04T04:22:36.432Z,21.90
2019-04-04T04:25:06.514Z,21.90
2019-04-04T04:27:36.133Z,21.90
2019-04-04T04:30:07.456Z,21.90
2019-04-04T04:32:37.506Z,21.80
2019-04-04T04:35:08.747Z,21.80
2019-04-04T04:37:38.385Z,21.80
2019-04-04T04:40:11.036Z,21.80
2019-04-04T04:42:39.385Z,21.80
2019-04-04T04:45:10.889Z,21.80
2019-04-04T04:47:39.600Z,21.80
2019-04-04T04:50:09.995Z,21.70
2019-04-04T04:52:39.427Z,21.70
2019-04-04T04:55:11.828Z,21.70
2019-04-04T04:57:39.668Z,21.70
2019-04-04T05:00:09.470Z,21.70
2019-04-04T05:02:39.413Z,21.70
2019-04-04T05:05:08.817Z,21.60
2019-04-04T05:07:39.057Z,21.70
2019-04-04T05:10:09.543Z,21.60
2019-04-04T05:12:39.384Z,21.60
2019-04-04T05:15:08.668Z,21.60
2019-04-04T05:17:39.971Z,21.60
2019-04-04T05:20:09.576Z,21.60
2019-04-04T05:22:40.033Z,21.50
2019-04-04T05:25:09.725Z,21.50
2019-04-04T05:27:39.311Z,21.50
2019-04-04T05:30:08.733Z,21.50
2019-04-04T05:32:38.084Z,21.50
2019-04-04T05:35:07.868Z,21.50
2019-04-04T05:37:38.238Z,21.50
2019-04-04T05:40:08.806Z,21.50
2019-04-04T05:42:38.456Z,21.50
2019-04-04T05:45:08.383Z,21.40
2019-04-04T05:47:37.911Z,21.40
2019-04-04T05:50:10.874Z,21.40
2019-04-04T05:52:38.341Z,21.40
2019-04-04T05:55:10.188Z,21.40
2019-04-04T05:57:39.494Z,21.40
2019-04-04T06:00:10.271Z,21.40
2019-04-04T06:02:41.068Z,21.40
2019-04-04T06:05:10.775Z,21.40
2019-04-04T06:07:40.360Z,21.30
2019-04-04T06:10:12.017Z,21.30
2019-04-04T06:12:41.579Z,21.30
2019-04-04T06:15:10.986Z,21.30
2019-04-04T06:17:40.476Z,21.30
2019-04-04T06:20:10.033Z,21.30
2019-04-04T06:22:39.607Z,21.30
2019-04-04T06:25:09.227Z,21.30
2019-04-04T06:27:40.277Z,21.20
2019-04-04T06:30:10.049Z,21.20
2019-04-04T06:32:39.820Z,21.20
2019-04-04T06:35:09.167Z,21.20
2019-04-04T06:37:38.996Z,21.20
2019-04-04T06:40:08.915Z,21.20
2019-04-04T06:42:38.627Z,21.20
2019-04-04T06:45:08.374Z,21.20
2019-04-04T06:47:37.852Z,21.20
2019-04-04T06:50:08.508Z,21.10
2019-04-04T06:52:37.957Z,21.20
2019-04-04T06:55:07.736Z,21.10
2019-04-04T06:57:37.590Z,21.10
2019-04-04T07:00:08.696Z,21.10
2019-04-04T07:02:37.977Z,21.10
2019-04-04T07:05:10.442Z,21.10
2019-04-04T07:07:38.603Z,21.10
2019-04-04T07:10:08.378Z,21.10
2019-04-04T07:12:38.684Z,21.00
2019-04-04T07:15:11.113Z,21.00
2019-04-04T07:17:40.409Z,21.00
2019-04-04T07:20:10.984Z,21.00
2019-04-04T07:22:40.420Z,21.00
2019-04-04T07:25:09.830Z,21.00
2019-04-04T07:27:39.452Z,21.00
2019-04-04T07:30:08.934Z,21.00
2019-04-04T07:32:40.809Z,20.90
2019-04-04T07:35:09.747Z,20.90
2019-04-04T07:37:39.377Z,20.90
2019-04-04T07:40:09.044Z,20.90
2019-04-04T07:42:40.185Z,20.90
2019-04-04T07:45:09.274Z,20.90
2019-04-04T07:47:38.976Z,20.90
2019-04-04T07:50:08.494Z,20.90
2019-04-04T07:52:37.924Z,20.90
2019-04-04T07:55:10.031Z,20.90
2019-04-04T07:57:38.580Z,20.90
2019-04-04T08:00:08.419Z,20.80
2019-04-04T08:02:37.696Z,20.90
2019-04-04T08:05:08.451Z,20.80
2019-04-04T08:07:38.034Z,20.80
2019-04-04T08:10:20.023Z,20.80
2019-04-04T08:12:39.596Z,20.80
2019-04-04T08:15:08.864Z,20.80
2019-04-04T08:17:38.505Z,20.80
2019-04-04T08:20:07.752Z,20.80
2019-04-04T08:22:39.733Z,20.80
2019-04-04T08:25:08.725Z,20.80
2019-04-04T08:27:38.509Z,20.80
2019-04-04T08:30:08.193Z,21.00
2019-04-04T08:32:37.465Z,21.10
2019-04-04T08:35:08.533Z,21.10
2019-04-04T08:37:38.055Z,21.20
2019-04-04T08:40:07.614Z,21.20
2019-04-04T08:42:37.141Z,21.20
2019-04-04T08:45:08.198Z,21.20
2019-04-04T08:47:38.235Z,21.10
2019-04-04T08:50:08.074Z,21.10
2019-04-04T08:52:37.341Z,21.10
2019-04-04T08:55:07.232Z,21.10
2019-04-04T08:57:36.956Z,21.10
2019-04-04T09:00:07.950Z,21.10
2019-04-04T09:02:37.528Z,21.10
2019-04-04T09:05:12.278Z,21.10
2019-04-04T09:07:38.189Z,21.10
2019-04-04T09:10:07.997Z,21.10
2019-04-04T09:12:37.406Z,21.10
2019-04-04T09:15:07.628Z,21.10
2019-04-04T09:17:37.480Z,21.10
2019-04-04T09:20:09.450Z,21.10
2019-04-04T09:22:40.776Z,21.20
2019-04-04T09:25:10.576Z,21.20
2019-04-04T09:27:40.714Z,21.20
2019-04-04T09:30:10.732Z,21.20
2019-04-04T09:32:40.584Z,21.20
2019-04-04T09:35:10.121Z,21.20
2019-04-04T09:37:39.693Z,21.10
2019-04-04T09:40:09.474Z,21.10
2019-04-04T09:42:38.781Z,21.10
2019-04-04T09:45:09.556Z,21.10
2019-04-04T09:47:39.350Z,21.10
2019-04-04T09:50:09.254Z,21.10
2019-04-04T09:52:38.677Z,21.10
2019-04-04T09:55:08.905Z,21.10
2019-04-04T09:57:38.445Z,21.10
2019-04-04T10:00:09.110Z,21.00
2019-04-04T10:02:38.853Z,21.00
2019-04-04T10:05:08.667Z,21.00
2019-04-04T10:07:37.924Z,21.00
2019-04-04T10:10:07.733Z,21.00
2019-04-04T10:12:37.646Z,21.00
2019-04-04T10:15:08.018Z,21.00
2019-04-04T10:17:37.739Z,21.00
2019-04-04T10:20:07.256Z,21.00
2019-04-04T10:22:36.540Z,21.00
2019-04-04T10:25:06.141Z,21.00
2019-04-04T10:27:35.939Z,20.90
2019-04-04T10:30:06.605Z,20.90
2019-04-04T10:32:36.083Z,20.90
2019-04-04T10:35:06.539Z,20.90
2019-04-04T10:37:35.809Z,20.80
2019-04-04T10:40:06.175Z,20.90
2019-04-04T10:42:35.477Z,20.90
2019-04-04T10:45:06.041Z,20.90
2019-04-04T10:47:35.331Z,20.90
2019-04-04T10:50:05.734Z,20.80
2019-04-04T10:52:35.285Z,20.80
2019-04-04T10:55:05.052Z,20.80
2019-04-04T10:57:34.342Z,20.80
2019-04-04T11:00:03.648Z,20.80
2019-04-04T11:02:33.153Z,20.80
2019-04-04T11:05:02.647Z,20.80
2019-04-04T11:07:32.235Z,20.80
2019-04-04T11:10:01.464Z,20.80
2019-04-04T11:12:30.768Z,20.80
2019-04-04T11:15:00.674Z,20.80
2019-04-04T11:17:30.292Z,20.80
2019-04-04T11:19:59.596Z,20.80
2019-04-04T11:22:29.172Z,20.80
2019-04-04T11:24:58.968Z,20.80
2019-04-04T11:27:28.232Z,20.80
2019-04-04T11:29:57.761Z,20.80
2019-04-04T11:32:27.059Z,20.80
2019-04-04T11:34:56.802Z,20.80
2019-04-04T11:37:26.203Z,20.80
2019-04-04T11:39:55.518Z,20.70
2019-04-04T11:42:25.242Z,20.70
2019-04-04T11:44:54.958Z,20.70
2019-04-04T11:47:24.700Z,20.70
2019-04-04T11:49:54.212Z,20.70
2019-04-04T11:52:23.704Z,20.70
2019-04-04T11:54:57.162Z,20.70
2019-04-04T11:57:26.662Z,20.70
2019-04-04T11:59:56.260Z,20.70
2019-04-04T12:02:26.948Z,20.70
2019-04-04T12:04:57.810Z,20.70
2019-04-04T12:07:27.406Z,20.60
2019-04-04T12:10:06.718Z,20.60
2019-04-04T12:12:27.851Z,20.60
2019-04-04T12:14:57.141Z,20.60
2019-04-04T12:17:26.700Z,20.60
2019-04-04T12:19:56.283Z,20.60
2019-04-04T12:22:25.807Z,20.60
2019-04-04T12:24:55.141Z,20.60
2019-04-04T12:27:24.905Z,20.60
2019-04-04T12:29:54.661Z,20.50
2019-04-04T12:32:24.137Z,20.50
2019-04-04T12:34:53.428Z,20.50
2019-04-04T12:37:23.301Z,20.50
2019-04-04T12:39:52.860Z,20.50
2019-04-04T12:42:22.651Z,20.50
2019-04-04T12:44:52.167Z,20.50
2019-04-04T12:47:21.828Z,20.60
2019-04-04T12:49:51.358Z,20.60
2019-04-04T12:52:20.638Z,20.60
2019-04-04T12:54:49.940Z,20.60
2019-04-04T12:57:19.234Z,20.50
2019-04-04T12:59:48.757Z,20.50
2019-04-04T13:02:18.258Z,20.50
2019-04-04T13:04:47.528Z,20.50
2019-04-04T13:07:16.898Z,20.50
2019-04-04T13:09:46.353Z,20.50
2019-04-04T13:12:15.803Z,20.50
2019-04-04T13:14:45.310Z,20.50
2019-04-04T13:17:15.154Z,20.50
2019-04-04T13:19:44.405Z,20.40
2019-04-04T13:22:14.124Z,20.40
2019-04-04T13:24:43.990Z,20.40
2019-04-04T13:27:13.729Z,20.40
2019-04-04T13:29:43.118Z,20.40
2019-04-04T13:32:13.024Z,20.40
2019-04-04T13:34:42.758Z,20.40
2019-04-04T13:37:12.022Z,20.40
2019-04-04T13:39:41.956Z,20.40
2019-04-04T13:42:11.232Z,20.40
2019-04-04T13:44:41.064Z,20.40
2019-04-04T13:47:10.582Z,20.30
2019-04-04T13:49:40.199Z,20.40
2019-04-04T13:52:11.544Z,20.30
2019-04-04T13:54:40.335Z,20.30
2019-04-04T13:57:10.105Z,20.30
2019-04-04T13:59:39.420Z,20.30
2019-04-04T14:02:08.906Z,20.40
2019-04-04T14:04:38.359Z,20.40
2019-04-04T14:07:10.444Z,20.40
2019-04-04T14:09:40.128Z,20.40
2019-04-04T14:12:09.598Z,20.40
2019-04-04T14:14:39.156Z,20.30
2019-04-04T14:17:08.876Z,20.30
2019-04-04T14:19:38.633Z,20.30
2019-04-04T14:22:08.333Z,20.30
2019-04-04T14:24:37.932Z,20.30
2019-04-04T14:27:07.487Z,20.40
2019-04-04T14:29:36.926Z,20.30
2019-04-04T14:32:06.213Z,20.30
2019-04-04T14:34:35.608Z,20.30
2019-04-04T14:37:05.025Z,20.30
2019-04-04T14:39:34.338Z,20.30
2019-04-04T14:42:04.060Z,20.30
2019-04-04T14:44:35.789Z,20.30
2019-04-04T14:47:04.519Z,20.30
2019-04-04T14:49:33.831Z,20.30
2019-04-04T14:52:03.069Z,20.30
2019-04-04T14:54:33.781Z,20.40
2019-04-04T14:57:03.417Z,20.40
2019-04-04T14:59:33.186Z,20.40
2019-04-04T15:02:02.489Z,20.40
2019-04-04T15:04:33.111Z,20.40
2019-04-04T15:07:03.083Z,20.40
2019-04-04T15:09:32.480Z,20.40
2019-04-04T15:12:04.692Z,20.40
2019-04-04T15:14:34.152Z,20.40
2019-04-04T15:17:03.439Z,20.50
2019-04-04T15:19:32.724Z,20.50
2019-04-04T15:22:02.009Z,20.60
2019-04-04T15:24:31.320Z,20.60
2019-04-04T15:27:00.625Z,20.70
2019-04-04T15:29:29.986Z,20.70
2019-04-04T15:31:59.463Z,20.70
2019-04-04T15:34:28.751Z,20.70
2019-04-04T15:36:58.055Z,20.70
2019-04-04T15:39:27.352Z,20.70
2019-04-04T15:41:56.727Z,20.80
2019-04-04T15:44:26.018Z,20.80
2019-04-04T15:46:55.365Z,20.70
2019-04-04T15:49:24.884Z,20.80
2019-04-04T15:51:54.187Z,20.80
2019-04-04T15:54:23.583Z,20.80
2019-04-04T15:56:52.863Z,20.80
2019-04-04T15:59:22.216Z,20.80
2019-04-04T16:01:51.537Z,20.90
2019-04-04T16:04:20.832Z,20.90
2019-04-04T16:06:50.234Z,20.90
2019-04-04T16:09:19.536Z,20.90
2019-04-04T16:11:49.959Z,20.90
2019-04-04T16:14:19.504Z,20.90
2019-04-04T16:16:49.637Z,21.00
2019-04-04T16:19:19.024Z,21.00
2019-04-04T16:21:48.436Z,21.00
2019-04-04T16:24:17.796Z,21.00
2019-04-04T16:26:48.356Z,21.10
2019-04-04T16:29:18.308Z,21.20
2019-04-04T16:31:47.604Z,21.20
2019-04-04T16:34:16.860Z,21.30
2019-04-04T16:36:46.149Z,21.30
2019-04-04T16:39:18.525Z,21.30
2019-04-04T16:41:47.904Z,21.30
2019-04-04T16:44:17.188Z,21.30
2019-04-04T16:46:46.466Z,21.40
2019-04-04T16:49:15.757Z,21.50
2019-04-04T16:51:45.076Z,21.50
2019-04-04T16:54:14.341Z,21.50
2019-04-04T16:56:43.636Z,21.60
2019-04-04T16:59:13.161Z,21.60
2019-04-04T17:01:43.103Z,21.60
2019-04-04T17:04:12.409Z,21.60
2019-04-04T17:06:42.279Z,21.60
2019-04-04T17:09:11.685Z,21.60
2019-04-04T17:11:40.938Z,21.60
2019-04-04T17:14:10.226Z,21.70
2019-04-04T17:16:39.545Z,21.80
2019-04-04T17:19:08.964Z,21.80
2019-04-04T17:21:38.214Z,21.80
2019-04-04T17:24:07.546Z,21.80
2019-04-04T17:26:36.804Z,21.80
2019-04-04T17:29:06.287Z,21.80
2019-04-04T17:31:35.858Z,21.80
2019-04-04T17:34:05.500Z,21.90
2019-04-04T17:36:35.155Z,21.90
2019-04-04T17:39:06.451Z,21.90
2019-04-04T17:41:35.795Z,21.90
2019-04-04T17:44:05.395Z,21.90
2019-04-04T17:46:34.696Z,22.00
2019-04-04T17:49:04.670Z,22.00
2019-04-04T17:51:34.404Z,22.10
2019-04-04T17:54:03.986Z,22.10
2019-04-04T17:56:33.328Z,22.10
2019-04-04T17:59:03.437Z,22.10
2019-04-04T18:01:35.276Z,22.10
2019-04-04T18:04:04.564Z,22.10
2019-04-04T18:06:33.955Z,22.10
2019-04-04T18:09:03.356Z,22.10
2019-04-04T18:11:32.703Z,22.10
2019-04-04T18:14:04.951Z,22.10
2019-04-04T18:16:34.283Z,22.20
2019-04-04T18:19:06.434Z,22.20
2019-04-04T18:21:35.858Z,22.30
2019-04-04T18:24:05.526Z,22.30
2019-04-04T18:26:34.800Z,22.20
2019-04-04T18:29:04.064Z,22.30
2019-04-04T18:31:33.383Z,22.20
2019-04-04T18:34:03.222Z,22.20
2019-04-04T18:36:32.569Z,22.40
2019-04-04T18:39:01.837Z,22.40
2019-04-04T18:41:31.166Z,22.40
2019-04-04T18:44:00.441Z,22.40
2019-04-04T18:46:29.759Z,22.50
2019-04-04T18:48:59.077Z,22.50
2019-04-04T18:51:28.410Z,22.50
2019-04-04T18:53:57.878Z,22.60
2019-04-04T18:56:27.395Z,22.60
2019-04-04T18:58:56.893Z,22.70
2019-04-04T19:01:26.377Z,22.70
2019-04-04T19:03:55.760Z,22.80
2019-04-04T19:06:25.084Z,22.80
2019-04-04T19:08:54.419Z,22.80
2019-04-04T19:11:23.703Z,22.70
2019-04-04T19:13:53.729Z,22.70
2019-04-04T19:16:23.188Z,22.70
2019-04-04T19:18:53.521Z,22.70
2019-04-04T19:21:22.814Z,22.70
2019-04-04T19:23:52.912Z,22.80
2019-04-04T19:26:22.295Z,22.90
2019-04-04T19:28:51.701Z,23.00
2019-04-04T19:31:21.111Z,23.00
2019-04-04T19:33:50.403Z,22.90
2019-04-04T19:36:19.712Z,23.00
2019-04-04T19:38:49.250Z,23.10
2019-04-04T19:41:18.603Z,23.20
2019-04-04T19:43:47.872Z,23.30
2019-04-04T19:46:17.153Z,23.30
2019-04-04T19:48:48.321Z,23.40
2019-04-04T19:51:17.207Z,23.40
2019-04-04T19:53:46.644Z,23.50
2019-04-04T19:56:15.970Z,23.50
2019-04-04T19:58:45.262Z,23.60
2019-04-04T20:01:14.565Z,23.70
2019-04-04T20:03:43.843Z,23.70
2019-04-04T20:06:13.134Z,23.70
2019-04-04T20:08:42.436Z,23.80
2019-04-04T20:11:11.838Z,23.80
2019-04-04T20:13:41.461Z,23.80
2019-04-04T20:16:12.368Z,23.80
2019-04-04T20:18:42.919Z,23.70
2019-04-04T20:21:12.358Z,23.60
2019-04-04T20:23:41.774Z,23.60
2019-04-04T20:26:13.689Z,23.60
2019-04-04T20:28:42.992Z,23.60
2019-04-04T20:31:12.295Z,23.50
2019-04-04T20:33:41.601Z,23.50
2019-04-04T20:36:11.040Z,23.60
2019-04-04T20:38:40.380Z,23.60
2019-04-04T20:41:09.751Z,23.70
2019-04-04T20:43:43.540Z,23.60
2019-04-04T20:46:10.632Z,23.60
2019-04-04T20:48:39.937Z,23.60
2019-04-04T20:51:10.455Z,23.50
2019-04-04T20:53:39.768Z,23.60
2019-04-04T20:56:09.058Z,23.60
2019-04-04T20:58:38.337Z,23.60
2019-04-04T21:01:07.647Z,23.80
2019-04-04T21:03:36.967Z,23.90
2019-04-04T21:06:06.225Z,24.00
2019-04-04T21:08:35.823Z,24.10
2019-04-04T21:11:05.513Z,24.10
2019-04-04T21:13:35.098Z,24.10
2019-04-04T21:16:04.418Z,24.10
2019-04-04T21:18:33.706Z,24.10
2019-04-04T21:21:02.973Z,24.10
2019-04-04T21:23:32.299Z,24.10
2019-04-04T21:26:01.966Z,24.10
2019-04-04T21:28:31.415Z,24.10
2019-04-04T21:31:00.714Z,24.10
2019-04-04T21:33:29.996Z,24.10
2019-04-04T21:36:00.018Z,24.10
2019-04-04T21:38:29.308Z,24.10
2019-04-04T21:40:58.584Z,24.00
2019-04-04T21:43:27.852Z,24.10
2019-04-04T21:45:57.148Z,24.10
2019-04-04T21:48:26.431Z,24.10
2019-04-04T21:50:55.708Z,24.10
2019-04-04T21:53:25.017Z,24.10
2019-04-04T21:55:54.613Z,24.00
2019-04-04T21:58:24.198Z,24.10
2019-04-04T22:00:57.627Z,24.00
2019-04-04T22:03:27.002Z,24.00
2019-04-04T22:05:56.273Z,24.00
2019-04-04T22:08:25.567Z,24.00
2019-04-04T22:10:54.882Z,24.00
2019-04-04T22:13:24.137Z,24.00
2019-04-04T22:15:53.751Z,24.00
2019-04-04T22:18:23.035Z,24.00
2019-04-04T22:20:52.309Z,24.00
2019-04-04T22:23:21.589Z,24.00
2019-04-04T22:25:50.829Z,24.00
2019-04-04T22:28:20.263Z,24.00
2019-04-04T22:30:50.106Z,24.00
2019-04-04T22:33:19.388Z,24.00
2019-04-04T22:35:48.674Z,24.00
2019-04-04T22:38:17.968Z,24.00
2019-04-04T22:40:47.240Z,24.00
2019-04-04T22:43:16.564Z,24.00
2019-04-04T22:45:45.879Z,24.00
2019-04-04T22:48:15.428Z,23.90
2019-04-04T22:50:44.896Z,24.00
2019-04-04T22:53:14.205Z,24.00
2019-04-04T22:55:43.474Z,23.90
2019-04-04T22:58:12.755Z,23.90
2019-04-04T23:00:42.071Z,23.90
2019-04-04T23:03:11.436Z,24.00
2019-04-04T23:05:40.931Z,24.00
2019-04-04T23:08:10.648Z,23.90
2019-04-04T23:10:39.922Z,24.00
2019-04-04T23:13:09.202Z,24.00
2019-04-04T23:15:38.990Z,23.90
2019-04-04T23:18:08.627Z,24.00
2019-04-04T23:20:37.924Z,23.90
2019-04-04T23:23:07.206Z,23.90
2019-04-04T23:25:36.783Z,23.90
2019-04-04T23:28:06.158Z,23.90
2019-04-04T23:30:35.510Z,24.00
2019-04-04T23:33:04.988Z,24.00
2019-04-04T23:35:34.247Z,24.00
2019-04-04T23:38:03.869Z,24.00
2019-04-04T23:40:33.526Z,24.00
2019-04-04T23:43:03.705Z,24.00
2019-04-04T23:45:33.241Z,24.00
2019-04-04T23:48:02.863Z,24.00
2019-04-04T23:50:32.274Z,24.00
2019-04-04T23:53:01.944Z,24.00
2019-04-04T23:55:31.195Z,24.00
2019-04-04T23:58:00.596Z,23.90
